Stottfjord — LMCE — position and weather

sailwx.info

Track history (hours):
 
Tides and Currents Weather Stations Pressure Air Temp Water Temp Dewpoint Dewpoint Depression Visibility Wind Speed Wind Dir Waves Ship Positions

Stottfjord

Last reported at 2016-Jun-17 09:31 UTC. Time now 2016-Jun-25 10:40 UTC.
Position N 60°24' E 005°19'.
Warning: this ship's position is 8 days out of date.

Length 28 m; draft 5.3 m.

Type: Fishing. MMSI: 257580600.

Date/timePositionNaut miles runAvg speedWind from/ knotsBaromVisibWave heightAir tempDewpointWater temp
2016-Jun-17 09:31N 60°24' E 005°19'  
2016-Jun-10 18:08N 63°29' E 009°00'610.6
2016-Jun-10 17:33N 63°32' E 009°12'9 9.3
2016-Jun-10 16:33N 63°38' E 009°28'79 8.8
2016-Jun-10 07:31N 64°46' E 011°01'9 9.7
2016-Jun-10 06:33N 64°52' E 011°17'10 9.6
2016-Jun-10 05:33N 64°59' E 011°35'9 9.1
2016-Jun-10 04:33N 65°06' E 011°47'83 9.2
2016-Jun-09 19:32N 66°24' E 012°58'33 4.0
2016-Jun-09 11:14N 66°55' E 013°30'2 2.1
2016-Jun-09 10:30N 66°56' E 013°27'8 9.0
2016-Jun-09 09:33N 67°01' E 013°44'8 8.4
2016-Jun-09 08:33N 67°07' E 013°60'9 9.3
2016-Jun-09 07:33N 67°15' E 014°14'4 4.5
2016-Jun-09 06:33N 67°17' E 014°23'0 0.0
2016-Jun-09 05:33N 67°17' E 014°23'0 0.0
2016-Jun-09 04:33N 67°17' E 014°23'1 0.6
2016-Jun-09 03:33N 67°18' E 014°23'9 9.0
2016-Jun-09 02:33N 67°27' E 014°28'10 9.1
2016-Jun-09 01:28N 67°37' E 014°30'10 9.2
2016-Jun-09 00:22N 67°47' E 014°32'102 9.1
2016-Jun-08 13:10N 69°06' E 017°29'6 9.1
2016-Jun-08 12:32N 69°08' E 017°44'7 7.2
2016-Jun-08 11:33N 69°13' E 017°58'  
Track history (hours):
 
Tides and Currents Weather Stations Pressure Air Temp Water Temp Dewpoint Dewpoint Depression Visibility Wind Speed Wind Dir Waves Ship Positions

Stottfjord

Last reported at 2016-Jun-17 09:31 UTC. Time now 2016-Jun-25 10:40 UTC.
Position N 60°24' E 005°19'.
Warning: this ship's position is 8 days out of date.

Length 28 m; draft 5.3 m.

Type: Fishing. MMSI: 257580600.

Date/timePositionNaut miles runAvg speedWind from/ knotsBaromVisibWave heightAir tempDewpointWater temp
2016-Jun-17 09:31N 60°24' E 005°19'  
2016-Jun-10 18:08N 63°29' E 009°00'610.6
2016-Jun-10 17:33N 63°32' E 009°12'9 9.3
2016-Jun-10 16:33N 63°38' E 009°28'79 8.8
2016-Jun-10 07:31N 64°46' E 011°01'9 9.7
2016-Jun-10 06:33N 64°52' E 011°17'10 9.6
2016-Jun-10 05:33N 64°59' E 011°35'9 9.1
2016-Jun-10 04:33N 65°06' E 011°47'83 9.2
2016-Jun-09 19:32N 66°24' E 012°58'33 4.0
2016-Jun-09 11:14N 66°55' E 013°30'2 2.1
2016-Jun-09 10:30N 66°56' E 013°27'8 9.0
2016-Jun-09 09:33N 67°01' E 013°44'8 8.4
2016-Jun-09 08:33N 67°07' E 013°60'9 9.3
2016-Jun-09 07:33N 67°15' E 014°14'4 4.5
2016-Jun-09 06:33N 67°17' E 014°23'0 0.0
2016-Jun-09 05:33N 67°17' E 014°23'0 0.0
2016-Jun-09 04:33N 67°17' E 014°23'1 0.6
2016-Jun-09 03:33N 67°18' E 014°23'9 9.0
2016-Jun-09 02:33N 67°27' E 014°28'10 9.1
2016-Jun-09 01:28N 67°37' E 014°30'10 9.2
2016-Jun-09 00:22N 67°47' E 014°32'102 9.1
2016-Jun-08 13:10N 69°06' E 017°29'6 9.1
2016-Jun-08 12:32N 69°08' E 017°44'7 7.2
2016-Jun-08 11:33N 69°13' E 017°58'  

Dump ship's entire track history